createdAt,value
2022-11-14T00:00:44.047Z,12.23
2022-11-14T00:03:04.821Z,12.30
2022-11-14T00:05:24.936Z,12.43
2022-11-14T00:07:44.139Z,13.10
2022-11-14T00:10:03.868Z,14.70
2022-11-14T00:12:23.135Z,12.65
2022-11-14T00:14:42.756Z,13.98
2022-11-14T00:17:03.760Z,11.07
2022-11-14T00:19:23.578Z,13.90
2022-11-14T00:21:43.006Z,13.00
2022-11-14T00:24:02.586Z,12.65
2022-11-14T00:26:21.795Z,11.52
2022-11-14T00:28:41.518Z,11.27
2022-11-14T00:31:00.637Z,12.98
2022-11-14T00:33:23.836Z,11.23
2022-11-14T00:35:43.050Z,11.32
2022-11-14T00:38:02.583Z,12.55
2022-11-14T00:40:21.896Z,12.38
2022-11-14T00:42:41.561Z,15.88
2022-11-14T00:45:00.726Z,10.82
2022-11-14T00:47:20.255Z,9.55
2022-11-14T00:49:41.253Z,10.20
2022-11-14T00:52:00.728Z,8.27
2022-11-14T00:54:19.933Z,8.40
2022-11-14T00:56:39.403Z,7.90
2022-11-14T00:59:01.133Z,7.60
2022-11-14T01:01:20.796Z,8.60
2022-11-14T01:03:40.330Z,8.60
2022-11-14T01:06:01.438Z,12.38
2022-11-14T01:08:21.820Z,9.93
2022-11-14T01:10:44.157Z,10.77
2022-11-14T01:15:22.278Z,9.75
2022-11-14T01:17:41.500Z,10.02
2022-11-14T01:20:01.225Z,12.07
2022-11-14T01:22:22.178Z,10.93
2022-11-14T01:24:41.691Z,10.03
2022-11-14T01:27:00.867Z,6.63
2022-11-14T01:29:20.231Z,7.68
2022-11-14T01:31:39.388Z,6.88
2022-11-14T01:33:59.008Z,11.90
2022-11-14T01:36:18.274Z,10.30
2022-11-14T01:38:39.636Z,10.02
2022-11-14T01:40:58.851Z,8.13
2022-11-14T01:43:32.455Z,8.45
2022-11-14T01:45:57.056Z,8.32
2022-11-14T01:48:22.861Z,7.28
2022-11-14T01:50:42.227Z,5.88
2022-11-14T01:53:01.543Z,6.70
2022-11-14T01:55:23.017Z,6.75
2022-11-14T01:57:45.201Z,7.78
2022-11-14T02:00:09.065Z,6.38
2022-11-14T02:02:29.169Z,7.18
2022-11-14T02:04:52.117Z,7.15
2022-11-14T02:07:13.154Z,5.80
2022-11-14T02:09:35.244Z,7.20
2022-11-14T02:11:59.213Z,6.63
2022-11-14T02:14:18.748Z,5.72
2022-11-14T02:16:38.420Z,7.38
2022-11-14T02:18:58.886Z,6.32
2022-11-14T02:21:19.867Z,8.10
2022-11-14T02:23:39.385Z,8.53
2022-11-14T02:25:58.757Z,6.53
2022-11-14T02:28:18.429Z,8.85
2022-11-14T02:30:37.838Z,5.32
2022-11-14T02:33:10.468Z,9.38
2022-11-14T02:35:30.653Z,7.35
2022-11-14T02:37:52.068Z,6.55
2022-11-14T02:40:12.613Z,6.73
2022-11-14T02:42:32.084Z,6.03
2022-11-14T02:44:51.199Z,7.55
2022-11-14T02:47:11.035Z,6.45
2022-11-14T02:49:30.339Z,6.85
2022-11-14T02:51:53.241Z,7.20
2022-11-14T02:54:14.358Z,8.90
2022-11-14T02:56:33.970Z,7.32
2022-11-14T02:58:53.083Z,6.90
2022-11-14T03:01:20.928Z,8.20
2022-11-14T03:03:40.929Z,6.93
2022-11-14T03:06:03.420Z,8.05
2022-11-14T03:08:22.738Z,5.88
2022-11-14T03:10:44.928Z,10.25
2022-11-14T03:13:04.450Z,7.85
2022-11-14T03:15:24.218Z,7.05
2022-11-14T03:17:43.740Z,6.78
2022-11-14T03:20:03.677Z,5.55
2022-11-14T03:22:22.932Z,6.50
2022-11-14T03:24:42.556Z,7.38
2022-11-14T03:27:03.409Z,6.82
2022-11-14T03:29:23.083Z,7.37
2022-11-14T03:31:42.510Z,6.13
2022-11-14T03:34:02.136Z,7.10
2022-11-14T03:36:21.403Z,4.40
2022-11-14T03:38:41.115Z,6.65
2022-11-14T03:41:02.430Z,5.70
2022-11-14T03:43:24.511Z,6.43
2022-11-14T03:45:43.727Z,4.15
2022-11-14T03:48:03.463Z,4.80
2022-11-14T03:50:22.921Z,4.47
2022-11-14T03:52:42.596Z,4.32
2022-11-14T03:55:01.873Z,4.63
2022-11-14T03:57:21.134Z,5.53
2022-11-14T03:59:42.445Z,3.25
2022-11-14T04:02:01.816Z,3.87
2022-11-14T04:04:21.385Z,4.38
2022-11-14T04:06:40.487Z,3.83
2022-11-14T04:09:00.010Z,4.13
2022-11-14T04:11:19.206Z,3.92
2022-11-14T04:13:39.212Z,5.35
2022-11-14T04:16:03.340Z,3.65
2022-11-14T04:18:22.816Z,3.67
2022-11-14T04:20:42.083Z,5.20
2022-11-14T04:23:01.336Z,4.05
2022-11-14T04:25:21.370Z,5.03
2022-11-14T04:27:40.681Z,5.57
2022-11-14T04:30:00.319Z,3.53
2022-11-14T04:32:21.158Z,6.20
2022-11-14T04:34:40.837Z,5.50
2022-11-14T04:37:00.159Z,5.75
2022-11-14T04:39:19.833Z,4.55
2022-11-14T04:41:39.096Z,3.13
2022-11-14T04:43:58.607Z,20.20
2022-11-14T04:46:18.030Z,24.10
2022-11-14T04:48:39.543Z,16.55
2022-11-14T04:50:58.860Z,11.63
2022-11-14T04:53:18.484Z,6.82
2022-11-14T04:55:37.752Z,8.05
2022-11-14T04:58:01.365Z,4.63
2022-11-14T05:00:21.314Z,3.63
2022-11-14T05:02:40.778Z,4.82
2022-11-14T05:05:01.834Z,4.38
2022-11-14T05:07:21.551Z,5.40
2022-11-14T05:09:40.972Z,5.18
2022-11-14T05:12:00.546Z,5.35
2022-11-14T05:14:19.907Z,6.55
2022-11-14T05:16:39.633Z,4.75
2022-11-14T05:18:58.911Z,5.63
2022-11-14T05:21:20.311Z,5.25
2022-11-14T05:23:39.628Z,3.58
2022-11-14T05:26:06.524Z,3.92
2022-11-14T05:28:25.796Z,5.80
2022-11-14T05:30:45.307Z,4.35
2022-11-14T05:33:04.633Z,3.70
2022-11-14T05:35:24.157Z,3.63
2022-11-14T05:37:45.051Z,3.95
2022-11-14T05:40:04.623Z,3.85
2022-11-14T05:42:23.839Z,3.22
2022-11-14T05:44:43.306Z,3.42
2022-11-14T05:47:07.842Z,3.20
2022-11-14T05:49:27.939Z,2.97
2022-11-14T05:51:47.200Z,4.40
2022-11-14T05:54:08.814Z,3.33
2022-11-14T05:56:27.978Z,2.42
2022-11-14T05:58:47.454Z,3.47
2022-11-14T06:01:07.732Z,3.47
2022-11-14T06:03:27.100Z,4.82
2022-11-14T06:05:46.263Z,2.90
2022-11-14T06:08:06.759Z,3.20
2022-11-14T06:10:28.377Z,4.05
2022-11-14T06:12:47.909Z,4.97
2022-11-14T06:15:07.689Z,3.08
2022-11-14T06:17:27.400Z,3.13
2022-11-14T06:19:46.667Z,3.47
2022-11-14T06:22:06.143Z,4.82
2022-11-14T06:24:25.656Z,2.97
2022-11-14T06:26:47.388Z,3.15
2022-11-14T06:29:06.592Z,3.22
2022-11-14T06:31:26.793Z,4.95
2022-11-14T06:33:46.145Z,3.45
2022-11-14T06:36:07.509Z,4.72
2022-11-14T06:38:26.822Z,3.20
2022-11-14T06:40:46.500Z,3.53
2022-11-14T06:43:07.455Z,7.32
2022-11-14T06:45:27.128Z,3.50
2022-11-14T06:47:46.550Z,5.50
2022-11-14T06:50:07.003Z,5.65
2022-11-14T06:52:27.645Z,2.88
2022-11-14T06:54:47.330Z,4.93
2022-11-14T06:57:06.730Z,4.65
2022-11-14T06:59:28.043Z,5.72
2022-11-14T07:01:47.210Z,4.17
2022-11-14T07:04:06.837Z,5.05
2022-11-14T07:06:28.142Z,3.10
2022-11-14T07:08:47.972Z,3.67
2022-11-14T07:11:08.413Z,3.65
2022-11-14T07:13:27.736Z,4.35
2022-11-14T07:15:55.801Z,9.57
2022-11-14T07:18:15.579Z,5.43
2022-11-14T07:20:34.892Z,7.45
2022-11-14T07:22:54.466Z,5.50
2022-11-14T07:25:14.155Z,4.78
2022-11-14T07:27:33.820Z,4.65
2022-11-14T07:29:53.909Z,4.68
2022-11-14T07:32:15.225Z,5.03
2022-11-14T07:34:34.475Z,5.20
2022-11-14T07:36:54.200Z,4.43
2022-11-14T07:39:13.568Z,4.85
2022-11-14T07:41:33.088Z,6.18
2022-11-14T07:43:52.303Z,4.57
2022-11-14T07:46:14.230Z,3.75
2022-11-14T07:48:35.337Z,2.83
2022-11-14T07:50:55.012Z,3.60
2022-11-14T07:53:14.584Z,3.13
2022-11-14T07:55:33.908Z,3.88
2022-11-14T07:57:57.162Z,2.55
2022-11-14T08:00:18.471Z,5.82
2022-11-14T08:02:37.692Z,3.85
2022-11-14T08:04:59.050Z,6.07
2022-11-14T08:07:18.445Z,6.93
2022-11-14T08:09:38.244Z,4.07
2022-11-14T08:11:57.768Z,4.25
2022-11-14T08:14:17.235Z,7.53
2022-11-14T08:16:36.687Z,4.80
2022-11-14T08:18:56.533Z,5.57
2022-11-14T08:21:17.589Z,3.63
2022-11-14T08:23:37.594Z,4.10
2022-11-14T08:25:57.296Z,6.32
2022-11-14T08:28:16.838Z,5.15
2022-11-14T08:30:36.492Z,4.90
2022-11-14T08:32:56.166Z,5.38
2022-11-14T08:35:15.328Z,4.55
2022-11-14T08:37:36.704Z,5.88
2022-11-14T08:39:55.907Z,5.85
2022-11-14T08:42:15.227Z,4.78
2022-11-14T08:44:34.795Z,5.13
2022-11-14T08:46:54.688Z,7.80
2022-11-14T08:49:14.246Z,4.50
2022-11-14T08:51:35.308Z,4.15
2022-11-14T08:53:57.436Z,5.88
2022-11-14T08:56:16.805Z,4.82
2022-11-14T08:58:36.489Z,5.13
2022-11-14T09:00:55.848Z,6.20
2022-11-14T09:03:17.244Z,4.40
2022-11-14T09:05:37.404Z,3.43
2022-11-14T09:07:57.226Z,4.18
2022-11-14T09:10:18.436Z,4.28
2022-11-14T09:12:38.622Z,5.43
2022-11-14T09:14:58.044Z,2.78
2022-11-14T09:17:17.917Z,4.13
2022-11-14T09:19:37.235Z,5.43
2022-11-14T09:21:56.917Z,5.32
2022-11-14T09:24:16.036Z,6.68
2022-11-14T09:26:37.599Z,8.50
2022-11-14T09:28:56.808Z,6.18
2022-11-14T09:31:17.551Z,10.05
2022-11-14T09:33:37.024Z,11.68
2022-11-14T09:36:01.156Z,7.35
2022-11-14T09:38:20.322Z,13.82
2022-11-14T09:40:54.122Z,11.15
2022-11-14T09:43:47.841Z,7.60
2022-11-14T09:46:15.554Z,6.25
2022-11-14T09:48:36.414Z,8.75
2022-11-14T09:51:03.916Z,26.97
2022-11-14T09:53:29.431Z,37.63
2022-11-14T09:55:49.061Z,21.20
2022-11-14T09:58:11.806Z,12.48
2022-11-14T10:00:42.228Z,6.75
2022-11-14T10:03:13.173Z,5.93
2022-11-14T10:05:52.857Z,5.50
2022-11-14T10:08:26.521Z,8.02
2022-11-14T10:10:57.905Z,7.55
2022-11-14T10:13:29.105Z,11.05
2022-11-14T10:15:58.709Z,16.48
2022-11-14T10:18:31.138Z,35.28
2022-11-14T10:20:56.236Z,53.20
2022-11-14T10:23:28.582Z,42.25
2022-11-14T10:25:58.418Z,38.83
2022-11-14T10:28:43.436Z,8.95
2022-11-14T10:31:12.889Z,7.30
2022-11-14T10:33:40.706Z,6.70
2022-11-14T10:36:07.191Z,5.57
2022-11-14T10:38:33.205Z,6.38
2022-11-14T10:40:56.114Z,5.40
2022-11-14T10:43:27.976Z,5.45
2022-11-14T10:45:51.744Z,4.65
2022-11-14T10:48:17.870Z,5.10
2022-11-14T10:50:44.866Z,10.10
2022-11-14T10:53:08.688Z,8.25
2022-11-14T10:55:57.329Z,7.30
2022-11-14T10:58:13.998Z,4.68
2022-11-14T11:00:33.520Z,4.30
2022-11-14T11:02:55.400Z,3.22
2022-11-14T11:05:20.197Z,5.65
2022-11-14T11:08:28.168Z,4.30
2022-11-14T11:11:04.508Z,3.95
2022-11-14T11:13:35.601Z,3.55
2022-11-14T11:16:01.267Z,5.43
2022-11-14T11:18:32.140Z,3.92
2022-11-14T11:21:06.781Z,13.60
2022-11-14T11:23:29.883Z,5.07
2022-11-14T11:25:49.251Z,4.85
2022-11-14T11:28:14.011Z,5.80
2022-11-14T11:30:33.208Z,5.45
2022-11-14T11:32:52.626Z,4.93
2022-11-14T11:35:16.345Z,5.20
2022-11-14T11:37:41.149Z,4.82
2022-11-14T11:40:04.194Z,7.47
2022-11-14T11:42:58.779Z,10.38
2022-11-14T11:45:19.127Z,6.53
2022-11-14T11:47:40.196Z,8.13
2022-11-14T11:50:00.830Z,6.50
2022-11-14T11:52:26.803Z,7.15
2022-11-14T11:55:01.738Z,9.20
2022-11-14T11:57:26.377Z,6.85
2022-11-14T11:59:48.449Z,6.43
2022-11-14T12:04:34.899Z,7.00
2022-11-14T12:07:01.593Z,4.90
2022-11-14T12:09:42.530Z,5.85
2022-11-14T12:12:10.096Z,7.70
2022-11-14T12:14:58.834Z,7.30
2022-11-14T12:18:06.448Z,9.55
2022-11-14T12:20:51.159Z,7.70
2022-11-14T12:23:50.978Z,6.70
2022-11-14T12:26:23.757Z,7.07
2022-11-14T12:29:08.521Z,5.65
2022-11-14T12:31:28.972Z,6.45
2022-11-14T12:33:53.707Z,7.38
2022-11-14T12:36:15.896Z,6.47
2022-11-14T12:43:37.991Z,8.82
2022-11-14T12:46:04.284Z,5.13
2022-11-14T12:48:32.185Z,7.45
2022-11-14T12:50:51.847Z,6.03
2022-11-14T12:53:43.860Z,6.03
2022-11-14T12:56:47.699Z,7.13
2022-11-14T12:59:36.078Z,10.00
2022-11-14T13:02:24.360Z,11.38
2022-11-14T13:04:57.397Z,10.60
2022-11-14T13:07:34.471Z,6.90
2022-11-14T13:10:17.990Z,10.00
2022-11-14T13:12:54.363Z,9.43
2022-11-14T13:15:49.248Z,8.88
2022-11-14T13:18:35.439Z,10.52
2022-11-14T13:21:22.875Z,11.98
2022-11-14T13:24:01.146Z,9.60
2022-11-14T13:26:47.921Z,7.63
2022-11-14T13:29:07.775Z,12.95
2022-11-14T13:31:28.587Z,11.98
2022-11-14T13:33:51.771Z,9.18
2022-11-14T13:36:12.661Z,11.13
2022-11-14T13:39:11.915Z,13.57
2022-11-14T13:41:54.027Z,9.60
2022-11-14T13:44:36.524Z,10.00
2022-11-14T13:47:15.251Z,13.70
2022-11-14T13:49:49.563Z,10.65
2022-11-14T13:52:09.647Z,10.50
2022-11-14T13:54:29.742Z,12.38
2022-11-14T13:57:00.720Z,12.52
2022-11-14T13:59:42.207Z,11.88
2022-11-14T14:02:23.794Z,9.98
2022-11-14T14:04:56.577Z,10.87
2022-11-14T14:07:25.861Z,12.25
2022-11-14T14:09:56.304Z,9.20
2022-11-14T14:12:35.997Z,10.45
2022-11-14T14:15:12.056Z,13.38
2022-11-14T14:17:39.155Z,12.52
2022-11-14T14:20:09.897Z,12.90
2022-11-14T14:22:40.377Z,11.10
2022-11-14T14:25:07.781Z,11.30
2022-11-14T14:27:35.638Z,9.18
2022-11-14T14:30:01.866Z,11.45
2022-11-14T14:32:22.925Z,14.77
2022-11-14T14:34:43.009Z,10.20
2022-11-14T14:37:06.830Z,11.75
2022-11-14T14:39:28.094Z,10.20
2022-11-14T14:41:48.113Z,9.65
2022-11-14T14:44:07.482Z,11.85
2022-11-14T14:46:34.575Z,14.15
2022-11-14T14:48:53.957Z,9.23
2022-11-14T14:51:17.676Z,10.90
2022-11-14T14:53:40.581Z,12.68
2022-11-14T14:56:01.484Z,11.32
2022-11-14T14:58:28.936Z,10.15
2022-11-14T15:00:57.536Z,11.48
2022-11-14T15:03:16.939Z,14.57
2022-11-14T15:05:38.201Z,10.95
2022-11-14T15:08:00.692Z,11.45
2022-11-14T15:10:26.919Z,14.93
2022-11-14T15:12:47.553Z,10.93
2022-11-14T15:15:10.416Z,11.70
2022-11-14T15:17:35.484Z,13.93
2022-11-14T15:19:56.882Z,12.40
2022-11-14T15:22:30.177Z,11.65
2022-11-14T15:25:22.110Z,11.25
2022-11-14T15:27:53.610Z,12.32
2022-11-14T15:30:25.929Z,14.23
2022-11-14T15:32:53.231Z,13.35
2022-11-14T15:35:13.635Z,14.77
2022-11-14T15:37:34.270Z,13.30
2022-11-14T15:39:53.521Z,14.23
2022-11-14T15:42:21.300Z,16.58
2022-11-14T15:44:43.484Z,16.25
2022-11-14T15:47:04.086Z,15.18
2022-11-14T15:49:28.040Z,14.85
2022-11-14T15:51:50.289Z,16.10
2022-11-14T15:56:29.946Z,19.70
2022-11-14T15:58:49.607Z,16.95
2022-11-14T16:01:20.579Z,14.43
2022-11-14T16:03:39.883Z,15.32
2022-11-14T16:05:59.091Z,15.13
2022-11-14T16:08:18.507Z,18.00
2022-11-14T16:10:37.876Z,15.40
2022-11-14T16:12:57.591Z,15.75
2022-11-14T16:15:16.835Z,16.92
2022-11-14T16:17:42.069Z,17.27
2022-11-14T16:20:03.330Z,17.38
2022-11-14T16:22:22.815Z,20.55
2022-11-14T16:24:42.381Z,16.92
2022-11-14T16:27:02.048Z,19.08
2022-11-14T16:29:21.362Z,18.88
2022-11-14T16:31:41.449Z,18.25
2022-11-14T16:34:02.363Z,20.88
2022-11-14T16:36:25.762Z,17.25
2022-11-14T16:38:47.493Z,17.10
2022-11-14T16:41:11.408Z,16.23
2022-11-14T16:43:30.775Z,18.42
2022-11-14T16:45:50.966Z,16.35
2022-11-14T16:48:10.952Z,16.77
2022-11-14T16:50:32.052Z,13.50
2022-11-14T16:52:51.805Z,18.23
2022-11-14T16:55:12.373Z,17.20
2022-11-14T16:57:31.747Z,17.48
2022-11-14T16:59:52.424Z,14.98
2022-11-14T17:02:16.116Z,16.38
2022-11-14T17:04:35.885Z,16.95
2022-11-14T17:06:57.059Z,19.27
2022-11-14T17:09:17.469Z,17.90
2022-11-14T17:11:36.650Z,17.65
2022-11-14T17:13:57.438Z,14.95
2022-11-14T17:16:16.666Z,13.52
2022-11-14T17:18:38.828Z,15.43
2022-11-14T17:20:58.205Z,15.20
2022-11-14T17:23:19.562Z,15.85
2022-11-14T17:25:38.895Z,14.68
2022-11-14T17:27:58.263Z,16.25
2022-11-14T17:30:18.041Z,16.55
2022-11-14T17:32:37.508Z,13.95
2022-11-14T17:34:57.183Z,14.40
2022-11-14T17:37:16.501Z,15.63
2022-11-14T17:39:37.900Z,16.98
2022-11-14T17:41:57.181Z,14.48
2022-11-14T17:44:16.907Z,13.43
2022-11-14T17:46:36.633Z,13.55
2022-11-14T17:48:56.305Z,13.70
2022-11-14T17:51:16.902Z,12.65
2022-11-14T17:53:37.295Z,12.90
2022-11-14T17:56:01.422Z,14.48
2022-11-14T17:58:21.001Z,15.15
2022-11-14T18:00:40.465Z,10.93
2022-11-14T18:03:00.090Z,10.98
2022-11-14T18:05:19.711Z,13.77
2022-11-14T18:07:39.250Z,13.48
2022-11-14T18:09:58.701Z,16.67
2022-11-14T18:12:20.167Z,13.57
2022-11-14T18:14:39.688Z,14.60
2022-11-14T18:17:12.330Z,12.20
2022-11-14T18:19:32.964Z,12.85
2022-11-14T18:21:53.923Z,11.45
2022-11-14T18:24:16.665Z,10.65
2022-11-14T18:26:36.084Z,11.05
2022-11-14T18:29:02.430Z,11.45
2022-11-14T18:31:22.134Z,12.90
2022-11-14T18:33:42.782Z,9.95
2022-11-14T18:36:04.096Z,10.82
2022-11-14T18:38:23.821Z,9.77
2022-11-14T18:40:46.517Z,11.85
2022-11-14T18:43:06.495Z,10.38
2022-11-14T18:45:28.319Z,10.50
2022-11-14T18:47:48.307Z,13.00
2022-11-14T18:50:08.796Z,9.65
2022-11-14T18:52:28.326Z,12.88
2022-11-14T18:54:47.693Z,10.18
2022-11-14T18:57:07.418Z,11.27
2022-11-14T18:59:26.942Z,11.93
2022-11-14T19:01:48.419Z,10.68
2022-11-14T19:04:09.363Z,11.13
2022-11-14T19:06:29.596Z,12.32
2022-11-14T19:08:49.016Z,9.15
2022-11-14T19:11:10.462Z,11.75
2022-11-14T19:13:30.414Z,14.13
2022-11-14T19:15:49.882Z,13.00
2022-11-14T19:18:12.527Z,10.57
2022-11-14T19:20:31.841Z,11.35
2022-11-14T19:22:51.414Z,10.85
2022-11-14T19:25:11.961Z,12.68
2022-11-14T19:27:31.378Z,11.48
2022-11-14T19:29:51.418Z,10.25
2022-11-14T19:32:11.189Z,12.35
2022-11-14T19:34:32.091Z,10.57
2022-11-14T19:36:59.786Z,12.37
2022-11-14T19:39:19.487Z,12.10
2022-11-14T19:41:39.054Z,10.93
2022-11-14T19:43:59.340Z,12.40
2022-11-14T19:46:19.883Z,11.48
2022-11-14T19:48:39.763Z,14.43
2022-11-14T19:51:05.635Z,10.68
2022-11-14T19:53:24.948Z,10.98
2022-11-14T19:55:44.623Z,12.52
2022-11-14T19:58:03.888Z,10.50
2022-11-14T20:00:25.919Z,14.05
2022-11-14T20:02:45.287Z,10.90
2022-11-14T20:05:04.857Z,13.90
2022-11-14T20:07:26.223Z,13.57
2022-11-14T20:09:45.931Z,12.25
2022-11-14T20:12:05.881Z,11.40
2022-11-14T20:14:25.603Z,10.98
2022-11-14T20:16:44.919Z,13.18
2022-11-14T20:19:05.266Z,16.20
2022-11-14T20:21:26.012Z,19.08
2022-11-14T20:23:48.039Z,15.13
2022-11-14T20:26:11.224Z,10.23
2022-11-14T20:28:31.945Z,15.82
2022-11-14T20:30:51.107Z,11.80
2022-11-14T20:33:10.679Z,12.90
2022-11-14T20:35:29.739Z,12.95
2022-11-14T20:37:49.466Z,13.88
2022-11-14T20:40:11.343Z,12.80
2022-11-14T20:42:30.865Z,13.65
2022-11-14T20:44:50.127Z,11.38
2022-11-14T20:47:11.185Z,13.02
2022-11-14T20:49:30.859Z,14.70
2022-11-14T20:51:52.120Z,15.60
2022-11-14T20:54:12.820Z,16.52
2022-11-14T20:56:34.184Z,13.45
2022-11-14T20:58:54.781Z,17.23
2022-11-14T21:01:14.838Z,11.98
2022-11-14T21:03:34.722Z,13.45
2022-11-14T21:05:54.521Z,12.32
2022-11-14T21:08:13.990Z,14.43
2022-11-14T21:10:48.510Z,14.52
2022-11-14T21:13:29.961Z,15.18
2022-11-14T21:15:49.774Z,11.80
2022-11-14T21:18:09.402Z,11.85
2022-11-14T21:20:29.049Z,11.80
2022-11-14T21:22:48.235Z,10.93
2022-11-14T21:25:08.113Z,10.65
2022-11-14T21:27:27.587Z,10.30
2022-11-14T21:29:48.896Z,15.18
2022-11-14T21:32:08.571Z,13.80
2022-11-14T21:34:28.144Z,16.52
2022-11-14T21:36:47.923Z,11.57
2022-11-14T21:39:07.961Z,14.45
2022-11-14T21:41:28.907Z,13.25
2022-11-14T21:43:50.322Z,13.60
2022-11-14T21:46:12.506Z,11.30
2022-11-14T21:48:40.257Z,13.05
2022-11-14T21:51:07.524Z,11.90
2022-11-14T21:53:26.737Z,12.45
2022-11-14T21:55:46.257Z,11.63
2022-11-14T21:58:05.474Z,11.88
2022-11-14T22:00:25.351Z,11.40
2022-11-14T22:03:08.219Z,11.68
2022-11-14T22:05:28.098Z,10.18
2022-11-14T22:07:47.414Z,13.40
2022-11-14T22:10:07.141Z,11.52
2022-11-14T22:12:26.661Z,11.95
2022-11-14T22:14:45.771Z,10.85
2022-11-14T22:17:05.600Z,12.07
2022-11-14T22:19:27.219Z,10.02
2022-11-14T22:21:46.945Z,11.15
2022-11-14T22:24:06.314Z,10.10
2022-11-14T22:26:26.243Z,12.15
2022-11-14T22:28:45.815Z,9.88
2022-11-14T22:31:08.116Z,12.70
2022-11-14T22:33:27.283Z,10.77
2022-11-14T22:35:48.375Z,13.18
2022-11-14T22:38:07.689Z,12.18
2022-11-14T22:40:27.320Z,11.98
2022-11-14T22:42:46.524Z,11.75
2022-11-14T22:45:06.150Z,11.55
2022-11-14T22:47:25.366Z,15.02
2022-11-14T22:49:44.684Z,12.80
2022-11-14T22:52:05.530Z,13.95
2022-11-14T22:54:24.745Z,16.13
2022-11-14T22:56:44.314Z,13.90
2022-11-14T22:59:03.786Z,12.23
2022-11-14T23:01:26.077Z,13.43
2022-11-14T23:06:09.006Z,13.98
2022-11-14T23:08:29.841Z,13.05
2022-11-14T23:10:50.865Z,13.20
2022-11-14T23:13:10.336Z,16.65
2022-11-14T23:15:30.367Z,13.98
2022-11-14T23:17:49.630Z,14.00
2022-11-14T23:20:15.030Z,15.20
2022-11-14T23:22:35.586Z,14.82
2022-11-14T23:24:56.764Z,17.42
2022-11-14T23:27:16.148Z,15.25
2022-11-14T23:29:35.788Z,12.68
2022-11-14T23:31:55.357Z,14.02
2022-11-14T23:34:14.983Z,13.07
2022-11-14T23:36:34.296Z,12.52
2022-11-14T23:38:55.969Z,16.02
2022-11-14T23:41:23.425Z,14.77
2022-11-14T23:43:43.100Z,17.73
2022-11-14T23:46:03.083Z,16.90
2022-11-14T23:48:23.425Z,15.90
2022-11-14T23:50:42.637Z,18.08
2022-11-14T23:53:02.006Z,20.15
2022-11-14T23:55:21.524Z,19.00
2022-11-14T23:57:42.682Z,18.33
